Map

Track Data

SID SEASON NUMBER BASIN SUBBASIN NAME ISO_TIME NATURE LAT LON WMO_WIND WMO_PRES WMO_AGENCY TRACK_TYPE DIST2LAND LANDFALL IFLAG USA_AGENCY USA_ATCF_ID USA_LAT USA_LON USA_RECORD USA_STATUS USA_WIND USA_PRES USA_SSHS USA_R34_NE USA_R34_SE USA_R34_SW USA_R34_NW USA_R50_NE USA_R50_SE USA_R50_SW USA_R50_NW USA_R64_NE USA_R64_SE USA_R64_SW USA_R64_NW USA_POCI USA_ROCI USA_RMW USA_EYE TOKYO_LAT TOKYO_LON TOKYO_GRADE TOKYO_WIND TOKYO_PRES TOKYO_R50_DIR TOKYO_R50_LONG TOKYO_R50_SHORT TOKYO_R30_DIR TOKYO_R30_LONG TOKYO_R30_SHORT TOKYO_LAND CMA_LAT CMA_LON CMA_CAT CMA_WIND CMA_PRES HKO_LAT HKO_LON HKO_CAT HKO_WIND HKO_PRES NEWDELHI_LAT NEWDELHI_LON NEWDELHI_GRADE NEWDELHI_WIND NEWDELHI_PRES NEWDELHI_CI NEWDELHI_DP NEWDELHI_POCI REUNION_LAT REUNION_LON REUNION_TYPE REUNION_WIND REUNION_PRES REUNION_TNUM REUNION_CI REUNION_RMW REUNION_R34_NE REUNION_R34_SE REUNION_R34_SW REUNION_R34_NW REUNION_R50_NE REUNION_R50_SE REUNION_R50_SW REUNION_R50_NW REUNION_R64_NE REUNION_R64_SE REUNION_R64_SW REUNION_R64_NW BOM_LAT BOM_LON BOM_TYPE BOM_WIND BOM_PRES BOM_TNUM BOM_CI BOM_RMW BOM_R34_NE BOM_R34_SE BOM_R34_SW BOM_R34_NW BOM_R50_NE BOM_R50_SE BOM_R50_SW BOM_R50_NW BOM_R64_NE BOM_R64_SE BOM_R64_SW BOM_R64_NW BOM_ROCI BOM_POCI BOM_EYE BOM_POS_METHOD BOM_PRES_METHOD NADI_LAT NADI_LON NADI_CAT NADI_WIND NADI_PRES WELLINGTON_LAT WELLINGTON_LON WELLINGTON_WIND WELLINGTON_PRES DS824_LAT DS824_LON DS824_STAGE DS824_WIND DS824_PRES TD9636_LAT TD9636_LON TD9636_STAGE TD9636_WIND TD9636_PRES TD9635_LAT TD9635_LON TD9635_WIND TD9635_PRES TD9635_ROCI NEUMANN_LAT NEUMANN_LON NEUMANN_CLASS NEUMANN_WIND NEUMANN_PRES MLC_LAT MLC_LON MLC_CLASS MLC_WIND MLC_PRES USA_GUST BOM_GUST BOM_GUST_PER REUNION_GUST REUNION_GUST_PER USA_SEAHGT USA_SEARAD_NE USA_SEARAD_SE USA_SEARAD_SW USA_SEARAD_NW STORM_SPEED STORM_DIR
1933101S11079 1933 9 SI MM NOT_NAMED 1933-04-11 00:00:00 TS -11.0000 78.9000 main 1902 1902 _________O____ -1 -11.0000 78.9000 TC 25 7 242
1933101S11079 1933 9 SI MM NOT_NAMED 1933-04-11 03:00:00 TS -11.1601 78.5976 main 1928 1928 _________P____ -1 -11.1601 78.5976 TC 25 7 243
1933101S11079 1933 9 SI MM NOT_NAMED 1933-04-11 06:00:00 TS -11.3000 78.3000 main 1943 1943 _________O____ -1 -11.3000 78.3000 TC 25 6 247
1933101S11079 1933 9 SI MM NOT_NAMED 1933-04-11 09:00:00 TS -11.4074 78.0074 main 1959 1959 _________P____ -1 -11.4074 78.0074 TC 25 6 251
1933101S11079 1933 9 SI MM NOT_NAMED 1933-04-11 12:00:00 TS -11.5000 77.7000 main 1975 1975 _________O____ -1 -11.5000 77.7000 TC 25 7 254
1933101S11079 1933 9 SI MM NOT_NAMED 1933-04-11 15:00:00 TS -11.5925 77.3575 main 1992 1992 _________P____ -1 -11.5925 77.3575 TC 25 7 254
1933101S11079 1933 9 SI MM NOT_NAMED 1933-04-11 18:00:00 TS -11.7000 77.0000 main 2011 2011 _________O____ -1 -11.7000 77.0000 TC 25 7 250
1933101S11079 1933 9 SI MM NOT_NAMED 1933-04-11 21:00:00 TS -11.8500 76.6425 main 2032 2032 _________P____ -1 -11.8500 76.6425 TC 25 7 246
1933101S11079 1933 9 SI MM NOT_NAMED 1933-04-12 00:00:00 TS -12.0000 76.3000 main 2061 2061 _________O____ -1 -12.0000 76.3000 TC 25 7 249
1933101S11079 1933 9 SI MM NOT_NAMED 1933-04-12 03:00:00 TS -12.1000 75.9849 main 2080 2080 _________P____ -1 -12.1000 75.9849 TC 25 6 251
1933101S11079 1933 9 SI MM NOT_NAMED 1933-04-12 06:00:00 TS -12.2000 75.7000 main 2099 2088 _________O____ -1 -12.2000 75.7000 TC 25 6 245
1933101S11079 1933 9 SI MM NOT_NAMED 1933-04-12 09:00:00 TS -12.3425 75.4425 main 2079 2049 _________P____ -1 -12.3425 75.4425 TC 25 6 238
1933101S11079 1933 9 SI MM NOT_NAMED 1933-04-12 12:00:00 TS -12.5000 75.2000 main 2049 2024 _________O____ -1 -12.5000 75.2000 TC 25 6 237
1933101S11079 1933 9 SI MM NOT_NAMED 1933-04-12 15:00:00 TS -12.6575 74.9500 main 2010 1985 _________P____ -1 -12.6575 74.9500 TC 25 6 238
1933101S11079 1933 9 SI MM NOT_NAMED 1933-04-12 18:00:00 TS -12.8000 74.7000 main 1985 1961 _________O____ -1 -12.8000 74.7000 TC 25 5 243
1933101S11079 1933 9 SI MM NOT_NAMED 1933-04-12 21:00:00 TS -12.9000 74.4574 main 1961 1927 _________P____ -1 -12.9000 74.4574 TC 25 5 248
1933101S11079 1933 9 SI MM NOT_NAMED 1933-04-13 00:00:00 TS -13.0000 74.2000 main 1927 1893 _________O____ -1 -13.0000 74.2000 TC 25 6 245
1933101S11079 1933 9 SI MM NOT_NAMED 1933-04-13 03:00:00 TS -13.1500 73.9075 main 1893 1854 _________P____ -1 -13.1500 73.9075 TC 25 7 243
1933101S11079 1933 9 SI MM NOT_NAMED 1933-04-13 06:00:00 TS -13.3000 73.6000 main 1854 1820 _________O____ -1 -13.3000 73.6000 TC 25 7 247
1933101S11079 1933 9 SI MM NOT_NAMED 1933-04-13 09:00:00 TS -13.4075 73.2925 main 1820 1786 _________P____ -1 -13.4075 73.2925 TC 25 6 251
1933101S11079 1933 9 SI MM NOT_NAMED 1933-04-13 12:00:00 TS -13.5000 73.0000 main 1786 1752 _________O____ -1 -13.5000 73.0000 TC 25 6 251
1933101S11079 1933 9 SI MM NOT_NAMED 1933-04-13 15:00:00 TS -13.5925 72.7350 main 1752 1727 _________P____ -1 -13.5925 72.7350 TC 25 5 248
1933101S11079 1933 9 SI MM NOT_NAMED 1933-04-13 18:00:00 TS -13.7000 72.5000 main 1727 1703 _________O____ -1 -13.7000 72.5000 TC 25 5 240
1933101S11079 1933 9 SI MM NOT_NAMED 1933-04-13 21:00:00 TS -13.8400 72.2926 main 1703 1674 _________P____ -1 -13.8400 72.2926 TC 25 5 232
1933101S11079 1933 9 SI MM NOT_NAMED 1933-04-14 00:00:00 TS -14.0000 72.1000 main 1674 _________O____ -1 -14.0000 72.1000 TC 25 5 229

About IBTrACS Database

This database is a web-friendly format of International Best Track Archive for Climate Stewardship (IBTrACS), a global best track data archive curated by NOAA dating back to 1842.

Updated: 2021-12-03